createdAt,value
2018-03-08T00:00:51.806Z,14.30
2018-03-08T00:03:19.510Z,14.20
2018-03-08T00:05:47.110Z,15.30
2018-03-08T00:08:14.832Z,16.23
2018-03-08T00:10:42.597Z,16.73
2018-03-08T00:13:10.240Z,17.73
2018-03-08T00:15:37.919Z,16.30
2018-03-08T00:18:05.584Z,16.73
2018-03-08T00:20:33.215Z,17.30
2018-03-08T00:23:00.817Z,16.67
2018-03-08T00:25:28.448Z,18.47
2018-03-08T00:27:56.131Z,16.67
2018-03-08T00:30:23.759Z,18.30
2018-03-08T00:32:51.366Z,18.37
2018-03-08T00:35:19.005Z,13.77
2018-03-08T00:37:46.679Z,16.77
2018-03-08T00:40:14.317Z,18.07
2018-03-08T00:42:41.928Z,17.27
2018-03-08T00:45:09.565Z,18.33
2018-03-08T00:47:37.167Z,18.90
2018-03-08T00:50:04.892Z,19.93
2018-03-08T00:52:32.499Z,19.20
2018-03-08T00:55:00.116Z,17.10
2018-03-08T00:57:27.779Z,19.40
2018-03-08T00:59:55.446Z,19.47
2018-03-08T01:02:23.112Z,17.40
2018-03-08T01:04:50.711Z,19.57
2018-03-08T01:07:18.436Z,16.13
2018-03-08T01:09:46.072Z,21.47
2018-03-08T01:12:13.695Z,17.90
2018-03-08T01:14:41.300Z,21.13
2018-03-08T01:17:09.475Z,21.97
2018-03-08T01:19:37.084Z,19.77
2018-03-08T01:22:04.729Z,20.70
2018-03-08T01:24:32.331Z,23.60
2018-03-08T01:26:59.946Z,23.40
2018-03-08T01:29:27.611Z,21.20
2018-03-08T01:31:55.227Z,21.13
2018-03-08T01:34:22.859Z,19.37
2018-03-08T01:36:50.496Z,22.47
2018-03-08T01:39:18.151Z,21.83
2018-03-08T01:41:45.755Z,19.73
2018-03-08T01:44:13.472Z,19.87
2018-03-08T01:46:41.145Z,19.10
2018-03-08T01:49:08.800Z,19.87
2018-03-08T01:51:36.465Z,19.10
2018-03-08T01:54:04.193Z,19.67
2018-03-08T01:56:31.800Z,21.17
2018-03-08T01:58:59.451Z,20.70
2018-03-08T02:01:27.076Z,21.80
2018-03-08T02:03:54.776Z,24.43
2018-03-08T02:06:22.396Z,21.90
2018-03-08T02:08:50.003Z,17.60
2018-03-08T02:11:17.641Z,22.27
2018-03-08T02:13:45.239Z,22.13
2018-03-08T02:16:12.858Z,23.70
2018-03-08T02:18:40.547Z,22.33
2018-03-08T02:21:08.213Z,22.03
2018-03-08T02:23:35.871Z,24.83
2018-03-08T02:26:03.540Z,22.60
2018-03-08T02:28:31.167Z,18.77
2018-03-08T02:30:58.768Z,21.70
2018-03-08T02:33:26.395Z,21.83
2018-03-08T02:35:54.008Z,22.10
2018-03-08T02:38:21.647Z,22.00
2018-03-08T02:40:49.318Z,21.87
2018-03-08T02:43:16.972Z,23.00
2018-03-08T02:45:44.577Z,23.10
2018-03-08T02:48:12.229Z,23.97
2018-03-08T02:50:39.836Z,24.57
2018-03-08T02:53:07.444Z,22.30
2018-03-08T02:55:35.187Z,23.27
2018-03-08T02:58:02.792Z,23.47
2018-03-08T03:00:30.516Z,22.20
2018-03-08T03:02:58.121Z,23.50
2018-03-08T03:05:25.748Z,25.63
2018-03-08T03:07:53.352Z,22.07
2018-03-08T03:10:20.980Z,22.87
2018-03-08T03:12:48.588Z,24.30
2018-03-08T03:15:16.217Z,26.80
2018-03-08T03:17:43.825Z,23.83
2018-03-08T03:20:11.451Z,25.50
2018-03-08T03:22:39.057Z,25.93
2018-03-08T03:25:06.718Z,25.63
2018-03-08T03:27:34.320Z,24.97
2018-03-08T03:30:01.926Z,24.80
2018-03-08T03:32:29.564Z,28.23
2018-03-08T03:34:57.168Z,27.37
2018-03-08T03:37:24.804Z,28.17
2018-03-08T03:39:52.500Z,28.13
2018-03-08T03:42:20.127Z,24.17
2018-03-08T03:44:47.728Z,26.10
2018-03-08T03:47:15.388Z,26.10
2018-03-08T03:49:42.991Z,24.83
2018-03-08T03:52:10.616Z,27.43
2018-03-08T03:54:38.272Z,29.30
2018-03-08T03:57:05.899Z,26.83
2018-03-08T03:59:33.500Z,27.63
2018-03-08T04:02:01.166Z,28.77
2018-03-08T04:04:28.787Z,26.97
2018-03-08T04:06:56.400Z,29.10
2018-03-08T04:09:24.028Z,29.60
2018-03-08T04:11:51.649Z,28.63
2018-03-08T04:14:19.272Z,29.07
2018-03-08T04:16:46.935Z,28.10
2018-03-08T04:19:14.595Z,29.50
2018-03-08T04:21:42.196Z,28.40
2018-03-08T04:24:09.832Z,28.80
2018-03-08T04:26:37.436Z,28.67
2018-03-08T04:29:05.087Z,29.90
2018-03-08T04:31:32.804Z,31.93
2018-03-08T04:34:00.414Z,30.10
2018-03-08T04:36:28.132Z,30.77
2018-03-08T04:38:55.796Z,28.17
2018-03-08T04:41:23.428Z,30.57
2018-03-08T04:43:51.040Z,30.17
2018-03-08T04:46:18.664Z,31.00
2018-03-08T04:48:46.271Z,28.00
2018-03-08T04:51:13.899Z,30.47
2018-03-08T04:53:41.504Z,29.83
2018-03-08T04:56:09.136Z,31.83
2018-03-08T04:58:36.737Z,30.87
2018-03-08T05:01:04.367Z,29.10
2018-03-08T05:03:32.015Z,31.83
2018-03-08T05:05:59.660Z,32.00
2018-03-08T05:08:27.265Z,29.30
2018-03-08T05:10:54.999Z,39.28
2018-03-08T05:13:22.628Z,32.70
2018-03-08T05:15:50.332Z,36.23
2018-03-08T05:18:17.960Z,34.80
2018-03-08T05:20:45.563Z,32.60
2018-03-08T05:23:13.188Z,32.60
2018-03-08T05:25:40.885Z,32.40
2018-03-08T05:28:08.520Z,34.50
2018-03-08T05:30:36.125Z,35.10
2018-03-08T05:33:03.757Z,32.47
2018-03-08T05:35:31.427Z,34.97
2018-03-08T05:37:59.188Z,36.30
2018-03-08T05:40:26.800Z,34.30
2018-03-08T05:42:54.435Z,34.33
2018-03-08T05:45:22.082Z,33.90
2018-03-08T05:47:49.711Z,34.97
2018-03-08T05:50:17.321Z,35.00
2018-03-08T05:52:45.068Z,36.57
2018-03-08T05:55:13.348Z,37.53
2018-03-08T05:57:40.983Z,36.17
2018-03-08T06:00:08.596Z,37.53
2018-03-08T06:02:36.223Z,37.17
2018-03-08T06:05:03.827Z,36.63
2018-03-08T06:07:31.461Z,39.20
2018-03-08T06:09:59.072Z,39.10
2018-03-08T06:12:26.700Z,41.00
2018-03-08T06:14:54.312Z,40.33
2018-03-08T06:17:21.968Z,39.07
2018-03-08T06:19:49.660Z,39.47
2018-03-08T06:22:17.268Z,38.80
2018-03-08T06:24:44.900Z,40.17
2018-03-08T06:27:12.505Z,40.50
2018-03-08T06:29:40.140Z,39.33
2018-03-08T06:32:07.750Z,38.97
2018-03-08T06:34:35.388Z,39.80
2018-03-08T06:37:03.001Z,37.73
2018-03-08T06:39:30.654Z,40.47
2018-03-08T06:41:58.265Z,37.30
2018-03-08T06:44:25.984Z,39.20
2018-03-08T06:46:53.750Z,39.17
2018-03-08T06:49:21.412Z,38.50
2018-03-08T06:51:49.021Z,38.37
2018-03-08T06:54:16.745Z,39.60
2018-03-08T06:56:44.397Z,41.20
2018-03-08T06:59:12.064Z,38.13
2018-03-08T07:01:39.692Z,38.17
2018-03-08T07:04:07.300Z,36.90
2018-03-08T07:06:34.932Z,38.23
2018-03-08T07:09:02.610Z,37.77
2018-03-08T07:11:30.284Z,38.83
2018-03-08T07:13:57.891Z,34.40
2018-03-08T07:16:25.524Z,37.30
2018-03-08T07:18:53.131Z,36.87
2018-03-08T07:21:20.760Z,37.10
2018-03-08T07:23:48.373Z,36.17
2018-03-08T07:26:16.145Z,35.77
2018-03-08T07:28:43.844Z,38.03
2018-03-08T07:31:11.580Z,36.07
2018-03-08T07:33:39.184Z,35.47
2018-03-08T07:36:06.816Z,35.03
2018-03-08T07:38:34.468Z,37.17
2018-03-08T07:41:02.081Z,34.47
2018-03-08T07:43:29.708Z,35.13
2018-03-08T07:45:57.447Z,34.87
2018-03-08T07:48:25.111Z,36.17
2018-03-08T07:50:52.715Z,37.73
2018-03-08T07:53:20.344Z,36.03
2018-03-08T07:55:47.953Z,36.93
2018-03-08T07:58:15.584Z,34.47
2018-03-08T08:00:43.189Z,38.43
2018-03-08T08:03:10.815Z,37.03
2018-03-08T08:08:54.748Z,35.47
2018-03-08T08:11:22.413Z,33.73
2018-03-08T08:13:50.039Z,36.47
2018-03-08T08:16:17.737Z,34.43
2018-03-08T08:18:45.399Z,35.10
2018-03-08T08:21:13.064Z,35.50
2018-03-08T08:23:40.733Z,32.67
2018-03-08T08:26:08.388Z,30.23
2018-03-08T08:28:36.052Z,36.97
2018-03-08T08:31:03.814Z,34.30
2018-03-08T08:33:31.417Z,37.73
2018-03-08T08:35:59.045Z,35.13
2018-03-08T08:38:26.648Z,35.37
2018-03-08T08:40:54.280Z,35.50
2018-03-08T08:43:21.880Z,37.93
2018-03-08T08:45:49.624Z,34.17
2018-03-08T08:48:17.356Z,33.93
2018-03-08T08:50:44.985Z,34.10
2018-03-08T08:53:12.592Z,34.80
2018-03-08T08:55:40.246Z,36.30
2018-03-08T08:58:07.849Z,33.27
2018-03-08T09:00:35.480Z,35.43
2018-03-08T09:03:03.086Z,37.30
2018-03-08T09:05:30.712Z,37.77
2018-03-08T09:07:58.336Z,36.60
2018-03-08T09:10:25.947Z,36.47
2018-03-08T09:12:53.580Z,38.13
2018-03-08T09:15:21.676Z,38.77
2018-03-08T09:17:48.604Z,38.13
2018-03-08T09:20:16.256Z,38.97
2018-03-08T09:22:44.540Z,41.13
2018-03-08T09:25:12.191Z,39.43
2018-03-08T09:27:39.863Z,45.77
2018-03-08T09:30:07.524Z,44.00
2018-03-08T09:32:35.160Z,41.23
2018-03-08T09:35:02.847Z,42.57
2018-03-08T09:37:30.504Z,44.33
2018-03-08T09:39:58.107Z,40.40
2018-03-08T09:42:25.740Z,43.37
2018-03-08T09:44:53.353Z,39.10
2018-03-08T09:47:21.001Z,43.73
2018-03-08T09:49:48.730Z,42.13
2018-03-08T09:52:16.336Z,43.87
2018-03-08T09:54:43.970Z,42.00
2018-03-08T09:57:11.602Z,40.97
2018-03-08T09:59:39.273Z,41.40
2018-03-08T10:02:06.877Z,43.13
2018-03-08T10:04:34.904Z,45.07
2018-03-08T10:07:02.544Z,47.97
2018-03-08T10:09:30.171Z,43.20
2018-03-08T10:11:57.786Z,44.27
2018-03-08T10:14:25.470Z,43.77
2018-03-08T10:16:53.081Z,46.00
2018-03-08T10:19:20.716Z,44.40
2018-03-08T10:21:48.347Z,50.43
2018-03-08T10:24:15.996Z,45.97
2018-03-08T10:26:43.628Z,47.20
2018-03-08T10:29:11.237Z,46.70
2018-03-08T10:31:38.870Z,47.70
2018-03-08T10:34:06.552Z,46.17
2018-03-08T10:36:34.183Z,50.93
2018-03-08T10:39:01.796Z,46.63
2018-03-08T10:43:57.059Z,45.37
2018-03-08T10:46:24.755Z,42.60
2018-03-08T10:51:20.152Z,46.23
2018-03-08T10:53:47.756Z,48.60
2018-03-08T10:56:15.463Z,46.50
2018-03-08T10:58:43.076Z,46.50
2018-03-08T11:01:16.396Z,44.00
2018-03-08T11:03:48.791Z,42.70
2018-03-08T11:09:14.685Z,43.97
2018-03-08T11:11:42.344Z,42.90
2018-03-08T11:14:09.958Z,38.60
2018-03-08T11:16:37.592Z,40.00
2018-03-08T11:19:05.207Z,39.43
2018-03-08T11:21:32.904Z,37.40
2018-03-08T11:24:00.556Z,38.50
2018-03-08T11:26:28.230Z,34.90
2018-03-08T11:28:55.894Z,35.90
2018-03-08T11:31:23.556Z,33.10
2018-03-08T11:33:51.212Z,27.77
2018-03-08T11:36:18.815Z,34.53
2018-03-08T11:38:46.451Z,29.73
2018-03-08T11:41:14.059Z,27.50
2018-03-08T11:43:41.756Z,25.00
2018-03-08T11:46:09.365Z,27.27
2018-03-08T11:48:37.000Z,16.77
2018-03-08T11:51:04.648Z,27.30
2018-03-08T11:53:33.665Z,25.30
2018-03-08T11:55:59.955Z,25.30
2018-03-08T11:58:27.588Z,25.53
2018-03-08T12:00:55.300Z,24.60
2018-03-08T12:03:22.909Z,22.87
2018-03-08T12:05:50.585Z,18.00
2018-03-08T12:08:18.168Z,22.40
2018-03-08T12:10:45.800Z,23.20
2018-03-08T12:13:13.420Z,22.23
2018-03-08T12:15:41.058Z,21.53
2018-03-08T12:18:08.736Z,21.93
2018-03-08T12:20:36.400Z,24.00
2018-03-08T12:23:04.003Z,25.30
2018-03-08T12:25:31.628Z,20.90
2018-03-08T12:27:59.240Z,19.53
2018-03-08T12:30:26.872Z,21.67
2018-03-08T12:32:54.495Z,18.97
2018-03-08T12:35:22.149Z,18.67
2018-03-08T12:37:49.764Z,18.70
2018-03-08T12:40:17.376Z,18.10
2018-03-08T12:42:45.052Z,16.47
2018-03-08T12:45:12.716Z,16.80
2018-03-08T12:47:40.348Z,19.43
2018-03-08T12:50:08.045Z,18.23
2018-03-08T12:52:35.676Z,17.57
2018-03-08T12:55:03.293Z,14.90
2018-03-08T12:57:31.028Z,14.70
2018-03-08T12:59:58.632Z,17.63
2018-03-08T13:02:26.269Z,14.27
2018-03-08T13:04:53.167Z,15.00
2018-03-08T13:07:20.797Z,16.07
2018-03-08T13:09:48.420Z,15.50
2018-03-08T13:12:16.061Z,14.80
2018-03-08T13:14:43.743Z,15.50
2018-03-08T13:17:11.533Z,14.30
2018-03-08T13:19:39.172Z,14.03
2018-03-08T13:22:06.836Z,12.93
2018-03-08T13:24:34.697Z,14.17
2018-03-08T13:27:02.300Z,14.10
2018-03-08T13:29:29.928Z,12.10
2018-03-08T13:31:57.592Z,15.60
2018-03-08T13:34:25.224Z,15.93
2018-03-08T13:36:52.912Z,15.77
2018-03-08T13:39:20.575Z,16.77
2018-03-08T13:41:48.239Z,16.30
2018-03-08T13:44:15.908Z,16.57
2018-03-08T13:46:43.523Z,12.50
2018-03-08T13:49:22.910Z,13.07
2018-03-08T13:51:50.572Z,14.60
2018-03-08T13:54:18.231Z,15.40
2018-03-08T13:56:45.902Z,15.37
2018-03-08T13:59:13.560Z,16.37
2018-03-08T14:01:41.188Z,18.07
2018-03-08T14:04:08.812Z,17.57
2018-03-08T14:06:36.446Z,18.57
2018-03-08T14:09:04.057Z,19.60
2018-03-08T14:11:31.692Z,17.17
2018-03-08T14:13:59.333Z,16.90
2018-03-08T14:16:26.987Z,17.83
2018-03-08T14:18:54.656Z,18.67
2018-03-08T14:21:22.317Z,16.90
2018-03-08T14:23:49.928Z,18.00
2018-03-08T14:26:17.561Z,17.67
2018-03-08T14:28:45.174Z,17.70
2018-03-08T14:31:12.868Z,18.90
2018-03-08T14:33:40.485Z,18.67
2018-03-08T14:36:08.092Z,20.40
2018-03-08T14:38:35.729Z,19.67
2018-03-08T14:41:03.340Z,19.50
2018-03-08T14:43:30.977Z,20.73
2018-03-08T14:45:58.636Z,21.83
2018-03-08T14:48:26.272Z,24.33
2018-03-08T14:50:53.960Z,22.77
2018-03-08T14:53:21.588Z,24.27
2018-03-08T14:55:49.197Z,23.50
2018-03-08T14:58:16.828Z,23.37
2018-03-08T15:00:44.432Z,24.87
2018-03-08T15:03:12.065Z,21.80
2018-03-08T15:05:39.676Z,22.07
2018-03-08T15:08:07.400Z,21.80
2018-03-08T15:10:35.056Z,23.03
2018-03-08T15:13:02.669Z,24.23
2018-03-08T15:15:30.300Z,24.33
2018-03-08T15:17:57.949Z,22.73
2018-03-08T15:20:25.604Z,23.73
2018-03-08T15:22:53.212Z,23.00
2018-03-08T15:25:20.836Z,23.63
2018-03-08T15:27:48.443Z,24.90
2018-03-08T15:30:16.082Z,24.50
2018-03-08T15:32:43.696Z,25.97
2018-03-08T15:35:11.323Z,27.93
2018-03-08T15:37:39.052Z,27.90
2018-03-08T15:40:06.851Z,27.60
2018-03-08T15:42:34.436Z,28.80
2018-03-08T15:45:02.133Z,28.03
2018-03-08T15:47:29.804Z,25.10
2018-03-08T15:49:57.416Z,27.80
2018-03-08T15:52:25.059Z,28.37
2018-03-08T15:54:52.664Z,25.40
2018-03-08T15:57:20.343Z,27.80
2018-03-08T15:59:48.013Z,26.00
2018-03-08T16:02:15.640Z,27.90
2018-03-08T16:04:43.331Z,27.10
2018-03-08T16:07:40.716Z,25.43
2018-03-08T16:10:24.028Z,28.53
2018-03-08T16:12:51.652Z,29.37
2018-03-08T16:15:19.257Z,27.97
2018-03-08T16:17:46.913Z,28.63
2018-03-08T16:20:14.515Z,28.53
2018-03-08T16:22:42.148Z,37.80
2018-03-08T16:25:09.789Z,35.80
2018-03-08T16:27:37.420Z,31.77
2018-03-08T16:30:05.020Z,29.60
2018-03-08T16:32:32.645Z,33.40
2018-03-08T16:35:00.345Z,37.67
2018-03-08T16:37:28.004Z,36.47
2018-03-08T16:39:55.669Z,36.03
2018-03-08T16:42:23.299Z,37.23
2018-03-08T16:44:51.051Z,36.75
2018-03-08T16:47:18.656Z,38.07
2018-03-08T16:49:46.264Z,37.23
2018-03-08T16:52:13.979Z,34.00
2018-03-08T16:54:41.648Z,37.77
2018-03-08T16:57:09.308Z,35.50
2018-03-08T16:59:36.936Z,32.40
2018-03-08T17:02:04.632Z,34.27
2018-03-08T17:04:32.314Z,33.07
2018-03-08T17:06:59.900Z,36.47
2018-03-08T17:09:27.621Z,36.67
2018-03-08T17:11:55.226Z,38.23
2018-03-08T17:14:22.944Z,38.40
2018-03-08T17:16:50.601Z,35.20
2018-03-08T17:19:18.277Z,33.37
2018-03-08T17:21:45.893Z,36.43
2018-03-08T17:24:13.540Z,33.20
2018-03-08T17:26:41.144Z,37.27
2018-03-08T17:29:08.768Z,37.53
2018-03-08T17:31:36.376Z,33.83
2018-03-08T17:34:03.999Z,36.03
2018-03-08T17:36:31.604Z,36.47
2018-03-08T17:38:59.232Z,34.20
2018-03-08T17:41:26.964Z,36.30
2018-03-08T17:43:54.592Z,34.90
2018-03-08T17:46:22.200Z,33.90
2018-03-08T17:48:49.919Z,36.57
2018-03-08T17:51:18.370Z,34.90
2018-03-08T17:53:45.976Z,36.33
2018-03-08T17:56:13.621Z,36.30
2018-03-08T17:58:41.232Z,35.70
2018-03-08T18:01:08.859Z,39.47
2018-03-08T18:03:36.465Z,35.83
2018-03-08T18:06:04.092Z,34.80
2018-03-08T18:08:31.697Z,34.70
2018-03-08T18:10:59.399Z,33.93
2018-03-08T18:13:27.056Z,31.90
2018-03-08T18:15:54.688Z,34.73
2018-03-08T18:18:22.292Z,31.90
2018-03-08T18:20:49.916Z,29.33
2018-03-08T18:23:17.529Z,31.10
2018-03-08T18:25:45.156Z,32.17
2018-03-08T18:28:12.764Z,32.70
2018-03-08T18:30:40.398Z,34.10
2018-03-08T18:33:08.004Z,38.43
2018-03-08T18:35:35.716Z,28.90
2018-03-08T18:38:03.497Z,28.50
2018-03-08T18:40:31.140Z,27.13
2018-03-08T18:42:58.773Z,28.03
2018-03-08T18:45:26.468Z,27.90
2018-03-08T18:47:54.144Z,26.93
2018-03-08T18:50:21.918Z,28.07
2018-03-08T18:52:49.550Z,22.20
2018-03-08T18:55:17.224Z,34.80
2018-03-08T18:57:45.088Z,28.40
2018-03-08T19:00:12.752Z,24.80
2018-03-08T19:02:40.380Z,22.03
2018-03-08T19:05:07.980Z,22.60
2018-03-08T19:07:35.640Z,20.00
2018-03-08T19:10:03.245Z,19.67
2018-03-08T19:12:30.897Z,20.73
2018-03-08T19:14:58.500Z,18.73
2018-03-08T19:17:26.192Z,21.33
2018-03-08T19:19:53.824Z,18.40
2018-03-08T19:22:21.435Z,17.70
2018-03-08T19:24:49.068Z,16.13
2018-03-08T19:27:16.743Z,15.77
2018-03-08T19:29:44.395Z,14.30
2018-03-08T19:32:12.017Z,13.10
2018-03-08T19:34:39.648Z,13.33
2018-03-08T19:37:07.283Z,14.30
2018-03-08T19:39:34.930Z,12.97
2018-03-08T19:42:02.618Z,13.20
2018-03-08T19:44:30.289Z,15.40
2018-03-08T19:46:57.964Z,14.50
2018-03-08T19:49:25.700Z,12.80
2018-03-08T19:51:53.463Z,12.80
2018-03-08T19:54:21.117Z,12.87
2018-03-08T19:56:48.728Z,12.33
2018-03-08T19:59:16.705Z,10.83
2018-03-08T20:01:44.428Z,13.07
2018-03-08T20:04:12.394Z,12.20
2018-03-08T20:06:40.024Z,11.30
2018-03-08T20:09:08.381Z,11.77
2018-03-08T20:11:36.008Z,10.20
2018-03-08T20:14:03.926Z,10.03
2018-03-08T20:16:31.628Z,10.93
2018-03-08T20:18:59.232Z,10.63
2018-03-08T20:21:26.857Z,9.30
2018-03-08T20:23:54.520Z,9.63
2018-03-08T20:26:22.144Z,10.00
2018-03-08T20:28:49.753Z,18.50
2018-03-08T20:31:17.400Z,19.37
2018-03-08T20:33:45.019Z,20.50
2018-03-08T20:36:12.652Z,14.13
2018-03-08T20:38:40.292Z,13.37
2018-03-08T20:41:07.936Z,12.63
2018-03-08T20:43:35.543Z,11.77
2018-03-08T20:46:03.178Z,10.63
2018-03-08T20:48:30.835Z,9.00
2018-03-08T20:50:58.440Z,8.13
2018-03-08T20:53:26.160Z,7.50
2018-03-08T20:55:53.756Z,7.87
2018-03-08T20:58:21.488Z,7.70
2018-03-08T21:00:49.108Z,8.20
2018-03-08T21:03:16.731Z,7.40
2018-03-08T21:05:44.332Z,8.37
2018-03-08T21:08:11.956Z,7.70
2018-03-08T21:10:39.564Z,7.57
2018-03-08T21:13:07.192Z,8.53
2018-03-08T21:15:34.952Z,8.63
2018-03-08T21:18:02.460Z,7.30
2018-03-08T21:20:30.148Z,7.57
2018-03-08T21:22:57.772Z,8.03
2018-03-08T21:25:25.373Z,8.30
2018-03-08T21:27:52.999Z,7.77
2018-03-08T21:30:20.600Z,7.40
2018-03-08T21:32:48.408Z,7.33
2018-03-08T21:35:15.984Z,8.57
2018-03-08T21:37:43.584Z,6.57
2018-03-08T21:40:11.199Z,7.87
2018-03-08T21:42:38.904Z,7.17
2018-03-08T21:45:06.532Z,7.10
2018-03-08T21:47:34.137Z,7.20
2018-03-08T21:50:01.792Z,7.20
2018-03-08T21:52:29.401Z,6.50
2018-03-08T21:54:57.113Z,7.53
2018-03-08T21:57:24.704Z,7.53
2018-03-08T21:59:52.332Z,6.50
2018-03-08T22:02:19.999Z,7.40
2018-03-08T22:04:47.664Z,6.10
2018-03-08T22:07:15.328Z,6.63
2018-03-08T22:09:42.976Z,6.30
2018-03-08T22:12:10.581Z,6.53
2018-03-08T22:14:39.012Z,6.43
2018-03-08T22:17:06.637Z,6.80
2018-03-08T22:19:34.232Z,6.70
2018-03-08T22:22:01.921Z,7.53
2018-03-08T22:24:29.530Z,6.70
2018-03-08T22:26:57.148Z,5.97
2018-03-08T22:29:24.744Z,6.73
2018-03-08T22:31:52.367Z,5.70
2018-03-08T22:34:20.031Z,6.23
2018-03-08T22:36:47.688Z,6.13
2018-03-08T22:39:15.284Z,5.83
2018-03-08T22:41:43.016Z,6.80
2018-03-08T22:44:10.680Z,6.90
2018-03-08T22:46:38.320Z,6.37
2018-03-08T22:49:05.924Z,6.57
2018-03-08T22:51:33.563Z,6.33
2018-03-08T22:54:01.185Z,7.27
2018-03-08T22:56:28.777Z,6.13
2018-03-08T22:58:56.392Z,7.03
2018-03-08T23:04:35.432Z,6.93
2018-03-08T23:07:03.067Z,7.47
2018-03-08T23:09:30.691Z,6.93
2018-03-08T23:11:58.391Z,6.87
2018-03-08T23:14:26.093Z,6.33
2018-03-08T23:16:53.680Z,7.10
2018-03-08T23:19:21.377Z,6.70
2018-03-08T23:21:49.036Z,7.23
2018-03-08T23:24:16.676Z,6.90
2018-03-08T23:26:44.364Z,6.60
2018-03-08T23:29:12.028Z,6.30
2018-03-08T23:31:39.688Z,6.97
2018-03-08T23:34:07.291Z,6.73
2018-03-08T23:36:34.919Z,5.93
2018-03-08T23:39:02.515Z,6.60
2018-03-08T23:41:30.136Z,6.30
2018-03-08T23:43:57.807Z,6.33
2018-03-08T23:46:25.564Z,7.10
2018-03-08T23:48:53.224Z,6.30
2018-03-08T23:51:20.891Z,6.20
2018-03-08T23:53:48.513Z,5.80
2018-03-08T23:56:16.116Z,5.47
2018-03-08T23:58:43.741Z,6.27
